Time;durP1;ratioP1;P1;durP2;ratioP2;P2;SDS_P1;SDS_P2;PMS_P1;PMS_P2;Temp;Humidity;BMP_temperature;BMP_pressure;BME280_temperature;BME280_humidity;BME280_pressure;Samples;Min_cycle;Max_cycle;Signal;HPM_P1;HPM_P2
2022/08/09 00:01:18;;;;;;;11.57;5.10;;;15.30;99.90;;;;;;5058049;28;20052;-76
2022/08/09 00:03:47;;;;;;;10.25;4.10;;;15.30;99.90;;;;;;5058992;28;20067;-76
2022/08/09 00:06:35;;;;;;;8.65;4.03;;;15.30;99.90;;;;;;5076708;28;20051;-76
2022/08/09 00:09:02;;;;;;;8.68;4.50;;;15.30;99.90;;;;;;5074846;28;20371;-76
2022/08/09 00:11:31;;;;;;;12.05;4.80;;;15.30;99.90;;;;;;5075955;28;20136;-75
2022/08/09 00:14:20;;;;;;;8.27;4.53;;;15.30;99.90;;;;;;5075311;28;20051;-76
2022/08/09 00:17:05;;;;;;;7.85;4.25;;;15.30;99.90;;;;;;5075742;28;20478;-76
2022/08/09 00:19:33;;;;;;;7.05;4.35;;;15.30;99.90;;;;;;5075916;28;20052;-76
2022/08/09 00:22:02;;;;;;;7.88;4.00;;;15.30;99.90;;;;;;5074582;28;20382;-76
2022/08/09 00:24:31;;;;;;;7.95;4.80;;;15.20;99.90;;;;;;5075585;28;20044;-76
2022/08/09 00:26:59;;;;;;;7.82;4.40;;;15.20;99.90;;;;;;5075324;28;20048;-76
2022/08/09 00:29:27;;;;;;;11.20;4.57;;;15.10;99.90;;;;;;5074288;28;20052;-76
2022/08/09 00:32:16;;;;;;;10.60;4.90;;;15.00;99.90;;;;;;5057688;28;20052;-76
2022/08/09 00:34:55;;;;;;;9.70;4.80;;;15.00;99.90;;;;;;5074263;28;20053;-76
2022/08/09 00:37:22;;;;;;;11.48;5.30;;;15.00;99.90;;;;;;5057866;28;20040;-76
2022/08/09 00:39:51;;;;;;;12.50;4.90;;;15.00;99.90;;;;;;5075467;28;20048;-76
2022/08/09 00:42:38;;;;;;;12.05;4.97;;;15.00;99.90;;;;;;5042955;28;20375;-76
2022/08/09 00:45:26;;;;;;;9.85;4.90;;;15.00;99.90;;;;;;5058222;28;20052;-76
2022/08/09 00:47:54;;;;;;;10.20;4.88;;;14.90;99.90;;;;;;5074474;28;20048;-76
2022/08/09 00:50:23;;;;;;;7.47;4.88;;;14.90;99.90;;;;;;5075237;28;20099;-76
2022/08/09 00:52:54;;;;;;;7.43;4.70;;;14.90;99.90;;;;;;5075211;28;20484;-76
2022/08/09 00:55:22;;;;;;;8.02;4.40;;;14.90;99.90;;;;;;5073845;28;20124;-76
2022/08/09 00:58:09;;;;;;;;;;;14.80;99.90;;;;;;5058469;28;20041;-76
2022/08/09 01:00:42;;;;;;;10.98;5.05;;;14.80;99.90;;;;;;5075295;28;19928;-76
2022/08/09 01:03:16;;;;;;;10.52;4.53;;;14.70;99.90;;;;;;5073710;28;20044;-76
2022/08/09 01:06:06;;;;;;;13.65;5.07;;;14.70;99.90;;;;;;5075096;28;20463;-75
2022/08/09 01:08:54;;;;;;;10.18;5.05;;;14.70;99.90;;;;;;5056650;28;20059;-76
2022/08/09 01:11:45;;;;;;;14.18;5.40;;;14.60;99.90;;;;;;5075172;28;20041;-76
2022/08/09 01:14:48;;;;;;;11.35;4.82;;;14.60;99.90;;;;;;5056044;28;20053;-76
2022/08/09 01:17:28;;;;;;;11.13;5.13;;;14.50;99.90;;;;;;5074848;28;20348;-76
2022/08/09 01:20:03;;;;;;;11.75;5.13;;;14.50;99.90;;;;;;5057526;28;20045;-76
2022/08/09 01:23:09;;;;;;;10.13;5.32;;;14.30;99.90;;;;;;5073700;28;20045;-76
2022/08/09 01:26:21;;;;;;;9.63;5.32;;;14.40;99.90;;;;;;5060148;28;20044;-76
2022/08/09 01:28:55;;;;;;;12.15;5.10;;;14.50;99.90;;;;;;5056271;28;20052;-76
2022/08/09 01:31:27;;;;;;;11.10;5.03;;;14.40;99.90;;;;;;5074789;28;20044;-76
2022/08/09 01:34:20;;;;;;;11.85;5.85;;;14.40;99.90;;;;;;5074779;28;20048;-76
2022/08/09 01:36:49;;;;;;;9.70;6.20;;;14.40;99.90;;;;;;5056890;28;20379;-76
2022/08/09 01:39:20;;;;;;;12.52;6.05;;;14.40;99.90;;;;;;5056778;28;20379;-76
2022/08/09 01:41:51;;;;;;;12.05;6.28;;;14.40;99.90;;;;;;5074066;28;20036;-76
2022/08/09 01:44:25;;;;;;;12.82;6.10;;;14.30;99.90;;;;;;5074590;28;20051;-75
2022/08/09 01:46:54;;;;;;;11.00;5.88;;;14.30;99.90;;;;;;5057028;28;20044;-76
2022/08/09 01:49:22;;;;;;;10.07;5.60;;;14.20;99.90;;;;;;5055790;28;20044;-77
2022/08/09 01:51:56;;;;;;;8.93;5.13;;;14.20;99.90;;;;;;5056710;28;20044;-76
2022/08/09 01:54:45;;;;;;;8.40;5.38;;;14.20;99.90;;;;;;5073800;28;20060;-76
2022/08/09 01:57:22;;;;;;;10.68;5.70;;;14.20;99.90;;;;;;5074546;28;20063;-76
2022/08/09 01:59:54;;;;;;;12.50;5.93;;;14.10;99.90;;;;;;5074393;28;20044;-76
2022/08/09 02:02:29;;;;;;;9.93;5.88;;;14.10;99.90;;;;;;5073499;28;20049;-76
2022/08/09 02:05:03;;;;;;;13.57;6.07;;;14.10;99.90;;;;;;5057075;28;20060;-76
2022/08/09 02:07:58;;;;;;;12.30;6.18;;;14.10;99.90;;;;;;5073509;28;20055;-76
2022/08/09 02:10:49;;;;;;;9.93;6.45;;;14.10;99.90;;;;;;5074315;28;20048;-76
2022/08/09 02:13:21;;;;;;;8.65;5.55;;;14.10;99.90;;;;;;5073437;28;20040;-76
2022/08/09 02:16:06;;;;;;;11.43;6.40;;;14.10;99.90;;;;;;5073202;28;20052;-76
2022/08/09 02:18:37;;;;;;;11.45;6.20;;;14.00;99.90;;;;;;5074002;28;20044;-76
2022/08/09 02:21:15;;;;;;;12.23;6.00;;;14.00;99.90;;;;;;5073478;28;20051;-76
2022/08/09 02:23:58;;;;;;;12.70;6.38;;;13.90;99.90;;;;;;5074336;28;20049;-75
2022/08/09 02:26:33;;;;;;;13.20;6.05;;;13.90;99.90;;;;;;5056710;28;20048;-76
2022/08/09 02:29:13;;;;;;;8.93;5.88;;;13.90;99.90;;;;;;5072879;28;20063;-76
2022/08/09 02:31:43;;;;;;;11.20;6.20;;;13.90;99.90;;;;;;5074605;28;20044;-76
2022/08/09 02:34:16;;;;;;;11.77;5.82;;;13.80;99.90;;;;;;5074353;28;20336;-76
2022/08/09 02:37:08;;;;;;;9.27;5.72;;;13.80;99.90;;;;;;5074087;28;20478;-76
2022/08/09 02:39:44;;;;;;;12.25;5.93;;;13.80;99.90;;;;;;5073912;28;20040;-76
2022/08/09 02:42:26;;;;;;;9.30;5.82;;;13.70;99.90;;;;;;5073114;28;20041;-76
2022/08/09 02:45:00;;;;;;;10.20;5.40;;;13.70;99.90;;;;;;5040443;28;20060;-76
2022/08/09 02:47:32;;;;;;;10.60;5.57;;;13.70;99.90;;;;;;5074197;28;20049;-76
2022/08/09 02:50:23;;;;;;;10.85;6.00;;;13.70;99.90;;;;;;5058473;28;20052;-75
2022/08/09 02:53:08;;;;;;;12.25;5.97;;;13.70;99.90;;;;;;5060701;28;20514;-76
2022/08/09 02:55:45;;;;;;;9.60;5.53;;;13.70;99.90;;;;;;5076215;28;20071;-75
2022/08/09 02:58:28;;;;;;;10.70;5.90;;;13.70;99.90;;;;;;5077925;28;20379;-76
2022/08/09 03:01:07;;;;;;;13.90;5.68;;;13.70;99.90;;;;;;5076191;28;20459;-76
2022/08/09 03:03:42;;;;;;;10.05;5.43;;;13.70;99.90;;;;;;5077377;28;20045;-76
2022/08/09 03:06:33;;;;;;;10.65;5.70;;;13.60;99.90;;;;;;5077146;28;20052;-76
2022/08/09 03:09:03;;;;;;;10.38;6.10;;;13.60;99.90;;;;;;5076072;28;20044;-76
2022/08/09 03:11:32;;;;;;;11.93;6.00;;;13.50;99.90;;;;;;5077015;28;20483;-76
2022/08/09 03:14:21;;;;;;;9.90;5.38;;;13.50;99.90;;;;;;5075989;28;20040;-76
2022/08/09 03:16:56;;;;;;;9.93;5.40;;;13.50;99.90;;;;;;5076816;28;20383;-76
2022/08/09 03:19:27;;;;;;;8.50;5.20;;;13.50;99.90;;;;;;5076982;28;20047;-76
2022/08/09 03:22:17;;;;;;;9.15;5.07;;;13.40;99.90;;;;;;5076199;28;20041;-76
2022/08/09 03:25:06;;;;;;;11.88;5.47;;;13.40;99.90;;;;;;5077226;28;20048;-76
2022/08/09 03:27:55;;;;;;;14.57;5.80;;;13.40;99.90;;;;;;5076395;28;20041;-76
2022/08/09 03:30:23;;;;;;;12.02;5.55;;;13.40;99.90;;;;;;5059430;28;20044;-76
2022/08/09 03:33:08;;;;;;;9.77;5.47;;;13.30;99.90;;;;;;5076791;28;20037;-75
2022/08/09 03:35:49;;;;;;;12.93;5.93;;;13.30;99.90;;;;;;5058216;28;20060;-76
2022/08/09 03:38:39;;;;;;;10.02;5.32;;;13.20;99.90;;;;;;5029454;28;20048;-76
2022/08/09 03:41:13;;;;;;;11.88;5.43;;;13.20;99.90;;;;;;5058318;28;20048;-76
2022/08/09 03:43:45;;;;;;;8.75;5.13;;;13.20;99.90;;;;;;5059249;28;20479;-76
2022/08/09 03:46:33;;;;;;;8.70;5.03;;;13.20;99.90;;;;;;5059336;28;20418;-76
2022/08/09 03:49:02;;;;;;;7.18;5.15;;;13.10;99.90;;;;;;5057881;28;20056;-75
2022/08/09 03:51:44;;;;;;;15.25;5.25;;;13.10;99.90;;;;;;5059811;28;20048;-76
2022/08/09 03:54:30;;;;;;;10.18;5.85;;;13.10;99.90;;;;;;5057738;28;20052;-76
2022/08/09 03:57:01;;;;;;;11.90;5.68;;;13.10;99.90;;;;;;5058952;28;20052;-76
2022/08/09 03:59:45;;;;;;;11.18;5.57;;;13.00;99.90;;;;;;5076438;28;20458;-76
2022/08/09 04:02:27;;;;;;;10.27;6.03;;;13.00;99.90;;;;;;5058749;28;20367;-75
2022/08/09 04:04:58;;;;;;;9.85;6.10;;;12.90;99.90;;;;;;5075976;28;20494;-76
2022/08/09 04:07:28;;;;;;;11.90;6.20;;;13.00;99.90;;;;;;5075820;28;20053;-75
2022/08/09 04:10:17;;;;;;;12.00;6.18;;;12.90;99.90;;;;;;5058604;28;20455;-76
2022/08/09 04:12:55;;;;;;;9.68;6.10;;;12.90;99.90;;;;;;5043410;28;20049;-76
2022/08/09 04:15:24;;;;;;;11.00;6.43;;;12.90;99.90;;;;;;5074479;28;20372;-76
2022/08/09 04:18:12;;;;;;;15.82;7.35;;;12.90;99.90;;;;;;5075743;28;20045;-76
2022/08/09 04:20:49;;;;;;;12.38;6.95;;;12.90;99.90;;;;;;5058426;28;20055;-75
2022/08/09 04:23:19;;;;;;;11.93;7.40;;;12.90;99.90;;;;;;5074566;28;20052;-75
2022/08/09 04:25:52;;;;;;;12.35;7.45;;;12.90;99.90;;;;;;5057858;28;20467;-76
2022/08/09 04:28:22;;;;;;;16.02;7.50;;;12.90;99.90;;;;;;5040696;28;20055;-75
2022/08/09 04:31:06;;;;;;;11.65;6.70;;;12.90;99.90;;;;;;5075681;28;20040;-76
2022/08/09 04:33:39;;;;;;;12.68;6.82;;;14.70;99.90;;;;;;5075492;28;20341;-74
2022/08/09 04:36:30;;;;;;;12.43;6.70;;;12.80;99.90;;;;;;5039944;28;20067;-74
2022/08/09 04:39:01;;;;;;;17.45;7.88;;;12.80;99.90;;;;;;5058162;28;20486;-74
2022/08/09 04:41:30;;;;;;;16.48;7.80;;;12.80;99.90;;;;;;5056963;28;20048;-74
2022/08/09 04:44:04;;;;;;;11.98;7.00;;;12.80;99.90;;;;;;5075435;28;20383;-74
2022/08/09 04:46:39;;;;;;;12.07;6.82;;;12.80;99.90;;;;;;5075102;28;20059;-74
2022/08/09 04:49:37;;;;;;;10.95;6.88;;;12.80;99.90;;;;;;5073941;28;20037;-74
2022/08/09 04:52:26;;;;;;;16.77;7.05;;;12.80;99.90;;;;;;5075268;28;20052;-74
2022/08/09 04:54:55;;;;;;;14.73;6.18;;;12.80;99.90;;;;;;5074013;28;20055;-74
2022/08/09 04:57:24;;;;;;;10.65;6.45;;;12.80;99.90;;;;;;5074903;28;20048;-74
2022/08/09 04:59:52;;;;;;;;;;;12.90;99.90;;;;;;5058158;28;20044;-74
2022/08/09 05:02:24;;;;;;;9.68;6.32;;;12.90;99.90;;;;;;5056348;28;19931;-74
2022/08/09 05:04:54;;;;;;;9.48;5.88;;;12.90;99.90;;;;;;5057680;28;20036;-74
2022/08/09 05:07:23;;;;;;;12.65;6.40;;;12.90;99.90;;;;;;5074761;28;20049;-75
2022/08/09 05:09:54;;;;;;;11.13;6.25;;;13.00;99.90;;;;;;5073914;28;20044;-75
2022/08/09 05:12:22;;;;;;;13.35;6.80;;;13.00;99.90;;;;;;5074386;28;20063;-74
2022/08/09 05:14:50;;;;;;;11.50;6.75;;;13.00;99.90;;;;;;5073861;28;20071;-74
2022/08/09 05:17:18;;;;;;;14.73;7.05;;;13.00;99.90;;;;;;5074851;28;20379;-74
2022/08/09 05:20:06;;;;;;;12.95;7.53;;;13.00;99.90;;;;;;5074688;28;20371;-75
2022/08/09 05:22:34;;;;;;;12.65;6.75;;;13.00;99.90;;;;;;5056006;28;20379;-75
2022/08/09 05:25:23;;;;;;;13.77;7.63;;;13.00;99.90;;;;;;5074627;28;20482;-74
2022/08/09 05:27:52;;;;;;;14.70;8.13;;;13.10;99.90;;;;;;5073771;28;20056;-75
2022/08/09 05:30:22;;;;;;;16.70;8.35;;;13.20;99.90;;;;;;5074383;28;20056;-75
2022/08/09 05:32:50;;;;;;;14.32;7.93;;;13.20;99.90;;;;;;5074593;28;20048;-74
2022/08/09 05:35:20;;;;;;;12.85;7.82;;;13.30;99.90;;;;;;5073990;28;20047;-75
2022/08/09 05:37:49;;;;;;;15.00;7.97;;;13.40;99.90;;;;;;5074747;28;20047;-74
2022/08/09 05:40:18;;;;;;;10.98;7.07;;;13.40;99.90;;;;;;5074510;28;20041;-75
2022/08/09 05:42:48;;;;;;;12.85;6.63;;;13.60;99.90;;;;;;5056413;28;20041;-75
2022/08/09 05:45:17;;;;;;;12.40;7.07;;;13.70;99.90;;;;;;5074785;28;20056;-74
2022/08/09 05:47:44;;;;;;;12.23;7.13;;;13.90;99.90;;;;;;5073520;28;20041;-74
2022/08/09 05:50:24;;;;;;;8.98;6.35;;;14.10;99.90;;;;;;5074450;28;20059;-75
2022/08/09 05:53:11;;;;;;;10.82;5.50;;;14.30;99.90;;;;;;5074295;28;20032;-74
2022/08/09 05:55:59;;;;;;;13.13;5.72;;;14.60;99.90;;;;;;5073246;28;20041;-75
2022/08/09 05:58:28;;;;;;;9.48;5.40;;;14.80;99.90;;;;;;5074486;28;20052;-75
2022/08/09 06:00:56;;;;;;;12.80;6.35;;;15.00;99.90;;;;;;5074397;28;20047;-75
2022/08/09 06:03:24;;;;;;;11.68;5.93;;;15.20;99.90;;;;;;5056898;28;20036;-74
2022/08/09 06:06:10;;;;;;;15.50;5.97;;;15.40;99.90;;;;;;5042708;28;20067;-74
2022/08/09 06:08:38;;;;;;;19.85;11.07;;;15.60;99.90;;;;;;5055582;28;20041;-74
2022/08/09 06:11:06;;;;;;;;;;;15.80;99.90;;;;;;5074657;28;20049;-75
2022/08/09 06:13:44;;;;;;;20.75;13.25;;;16.00;99.90;;;;;;5074242;28;20377;-75
2022/08/09 06:16:14;;;;;;;25.83;13.98;;;16.10;99.90;;;;;;5073243;28;20060;-75
2022/08/09 06:18:42;;;;;;;30.50;16.00;;;16.30;99.90;;;;;;5056364;28;20053;-75
2022/08/09 06:21:10;;;;;;;;;;;16.50;99.90;;;;;;5056037;28;20045;-75
2022/08/09 06:23:46;;;;;;;28.02;15.18;;;16.70;99.90;;;;;;5057713;28;20259;-75
2022/08/09 06:26:28;;;;;;;30.65;16.58;;;16.80;99.90;;;;;;5060483;28;20041;-75
2022/08/09 06:28:58;;;;;;;33.65;18.83;;;16.90;99.90;;;;;;5043193;28;20059;-75
2022/08/09 06:31:33;;;;;;;34.17;18.40;;;15.00;99.90;;;;;;5060643;28;20055;-75
2022/08/09 06:34:21;;;;;;;32.78;19.45;;;17.20;99.90;;;;;;5076609;28;20072;-75
2022/08/09 06:36:50;;;;;;;37.72;20.30;;;17.30;99.90;;;;;;5077556;28;20037;-75
2022/08/09 06:39:30;;;;;;;36.53;22.75;;;17.30;99.90;;;;;;5078072;28;20053;-75
2022/08/09 06:42:21;;;;;;;33.55;22.02;;;17.40;99.90;;;;;;5076723;28;20047;-75
2022/08/09 06:44:59;;;;;;;36.95;21.33;;;17.50;99.90;;;;;;5077524;28;20047;-75
2022/08/09 06:47:47;;;;;;;30.13;19.67;;;17.60;99.90;;;;;;5059560;28;20359;-74
2022/08/09 06:50:24;;;;;;;31.73;19.23;;;17.60;99.90;;;;;;5077858;28;20072;-75
2022/08/09 06:52:52;;;;;;;33.45;18.92;;;17.70;99.90;;;;;;5077321;28;20351;-75
2022/08/09 06:55:20;;;;;;;29.15;19.33;;;17.70;99.90;;;;;;5058945;28;20242;-75
2022/08/09 06:57:50;;;;;;;33.92;19.10;;;17.80;99.90;;;;;;5077135;28;20055;-75
2022/08/09 07:00:32;;;;;;;29.80;18.02;;;17.80;99.90;;;;;;5076054;28;20048;-75
2022/08/09 07:03:23;;;;;;;32.80;19.13;;;17.90;99.90;;;;;;5062583;28;20040;-75
2022/08/09 07:05:56;;;;;;;29.13;18.23;;;18.10;99.90;;;;;;5043125;28;20049;-75
2022/08/09 07:08:32;;;;;;;25.52;18.10;;;18.20;99.90;;;;;;5076499;28;20056;-75
2022/08/09 07:11:02;;;;;;;27.63;17.70;;;18.30;99.90;;;;;;5077325;28;20049;-75
2022/08/09 07:13:33;;;;;;;28.92;19.05;;;18.40;99.90;;;;;;5077148;28;20045;-75
2022/08/09 07:16:21;;;;;;;28.65;18.77;;;18.50;99.90;;;;;;5075857;28;20052;-75
2022/08/09 07:19:10;;;;;;;30.20;20.23;;;18.60;99.90;;;;;;5077359;28;20040;-75
2022/08/09 07:21:45;;;;;;;32.20;20.38;;;18.70;99.90;;;;;;5042875;28;20048;-75
2022/08/09 07:24:31;;;;;;;31.10;21.20;;;18.80;99.90;;;;;;5059497;28;20364;-75
2022/08/09 07:27:11;;;;;;;29.98;20.85;;;18.90;99.90;;;;;;5061730;28;20036;-75
2022/08/09 07:29:59;;;;;;;33.03;22.15;;;19.00;99.90;;;;;;5061122;28;20041;-75
2022/08/09 07:32:28;;;;;;;31.95;19.63;;;19.10;99.90;;;;;;5058728;28;20052;-77
2022/08/09 07:35:08;;;;;;;30.48;19.52;;;19.20;99.90;;;;;;5074657;28;20393;-75
2022/08/09 07:37:39;;;;;;;27.20;18.15;;;19.30;99.90;;;;;;5058653;28;20059;-76
2022/08/09 07:40:13;;;;;;;31.33;19.10;;;19.40;99.90;;;;;;5076275;28;20040;-75
2022/08/09 07:42:54;;;;;;;28.80;18.55;;;19.60;99.90;;;;;;5075206;28;20048;-75
2022/08/09 07:45:24;;;;;;;25.98;18.33;;;19.70;99.90;;;;;;5076101;28;20040;-75
2022/08/09 07:48:09;;;;;;;27.70;17.00;;;19.80;99.90;;;;;;5059832;28;20045;-76
2022/08/09 07:51:00;;;;;;;28.40;18.52;;;19.80;99.90;;;;;;5076034;28;20044;-75
2022/08/09 07:53:50;;;;;;;29.90;17.80;;;19.90;99.90;;;;;;5075992;28;20045;-74
2022/08/09 07:56:35;;;;;;;25.85;16.70;;;19.90;99.90;;;;;;5059864;28;20123;-75
2022/08/09 07:59:21;;;;;;;23.95;16.38;;;20.00;99.90;;;;;;5058245;28;20059;-75
2022/08/09 08:02:09;;;;;;;21.00;15.15;;;20.20;99.80;;;;;;5074505;28;20353;-75
2022/08/09 08:04:43;;;;;;;22.48;14.25;;;20.30;99.70;;;;;;5075897;28;20363;-76
2022/08/09 08:07:15;;;;;;;21.75;13.68;;;20.30;99.40;;;;;;5057872;28;20056;-76
2022/08/09 08:10:05;;;;;;;18.67;11.60;;;20.40;98.60;;;;;;5075835;28;20040;-75
2022/08/09 08:12:41;;;;;;;17.73;12.15;;;20.50;98.20;;;;;;5058139;28;20067;-77
2022/08/09 08:15:16;;;;;;;19.60;11.82;;;20.70;97.70;;;;;;5074986;28;20055;-76
2022/08/09 08:17:51;;;;;;;18.27;12.75;;;20.50;97.70;;;;;;5076106;28;20048;-74
2022/08/09 08:20:27;;;;;;;15.93;11.07;;;20.40;97.50;;;;;;5058848;28;20463;-75
2022/08/09 08:23:01;;;;;;;19.40;11.70;;;20.40;97.50;;;;;;5074760;28;20040;-75
2022/08/09 08:25:46;;;;;;;19.27;12.15;;;20.50;97.70;;;;;;5076156;28;20041;-75
2022/08/09 08:28:34;;;;;;;16.17;10.85;;;20.00;97.50;;;;;;5074881;28;20039;-75
2022/08/09 08:31:11;;;;;;;16.75;11.38;;;19.90;97.90;;;;;;5076127;28;20048;-79
2022/08/09 08:33:46;;;;;;;16.83;9.90;;;19.80;98.30;;;;;;5042704;28;20363;-75
2022/08/09 08:36:24;;;;;;;18.20;10.07;;;19.60;98.20;;;;;;5074582;28;20045;-76
2022/08/09 08:39:17;;;;;;;16.90;10.10;;;19.90;98.60;;;;;;5043123;28;20040;-79
2022/08/09 08:42:27;;;;;;;20.60;9.75;;;19.60;99.80;;;;;;5044058;28;20064;-79
2022/08/09 08:45:03;;;;;;;18.50;9.32;;;20.00;99.20;;;;;;5057246;28;20056;-79
2022/08/09 08:47:43;;;;;;;15.45;9.32;;;19.60;98.50;;;;;;5057156;28;20040;-75
2022/08/09 08:50:15;;;;;;;17.77;9.43;;;19.50;98.60;;;;;;5058001;28;20052;-78
2022/08/09 08:52:55;;;;;;;15.77;8.55;;;19.50;99.40;;;;;;5059956;28;20044;-77
2022/08/09 08:55:29;;;;;;;15.85;8.98;;;19.60;99.70;;;;;;5074549;28;20049;-75
2022/08/09 08:57:59;;;;;;;15.98;8.48;;;19.20;99.40;;;;;;5057749;28;20044;-79
2022/08/09 09:00:41;;;;;;;16.27;8.52;;;19.20;99.80;;;;;;5074520;28;20040;-75
2022/08/09 09:03:21;;;;;;;13.77;7.05;;;19.20;99.90;;;;;;5074215;28;20059;-63
2022/08/09 09:06:06;;;;;;;15.15;7.75;;;19.30;99.30;;;;;;5057525;28;20482;-74
2022/08/09 09:08:38;;;;;;;14.80;6.60;;;19.30;99.00;;;;;;5057281;28;20459;-73
2022/08/09 09:11:10;;;;;;;11.27;5.40;;;19.30;98.90;;;;;;5074671;28;20059;-76
2022/08/09 09:13:49;;;;;;;11.02;4.78;;;19.40;98.50;;;;;;5075217;28;20044;-79
2022/08/09 09:16:29;;;;;;;12.75;5.20;;;19.40;98.20;;;;;;5074200;28;20367;-77
2022/08/09 09:19:11;;;;;;;11.25;5.57;;;19.50;97.90;;;;;;5058320;28;20052;-78
2022/08/09 09:22:12;;;;;;;9.25;4.22;;;21.10;98.20;;;;;;5043088;28;20048;-79
2022/08/09 09:24:55;;;;;;;13.80;4.53;;;19.70;97.70;;;;;;5074926;28;20471;-79
2022/08/09 09:27:43;;;;;;;;;;;19.90;96.90;;;;;;5074280;28;20037;-74
2022/08/09 09:30:50;;;;;;;10.27;5.30;;;19.90;96.50;;;;;;5057638;28;19928;-80
2022/08/09 09:33:29;;;;;;;10.40;5.57;;;20.00;97.50;;;;;;5074914;28;20371;-81
2022/08/09 09:36:38;;;;;;;8.70;4.60;;;20.10;96.90;;;;;;5027260;28;20044;-76
2022/08/09 09:39:32;;;;;;;7.72;3.75;;;20.20;96.00;;;;;;5058549;28;20051;-75
2022/08/09 09:42:30;;;;;;;9.15;4.38;;;20.20;96.10;;;;;;5073669;28;20032;-77
2022/08/09 09:45:06;;;;;;;11.38;3.80;;;20.30;95.80;;;;;;5058161;28;20075;-76
2022/08/09 09:48:37;;;;;;;9.55;3.22;;;20.40;95.70;;;;;;5071820;28;20056;-78
2022/08/09 09:55:06;;;;;;;11.45;3.47;;;21.00;93.90;;;;;;5055876;28;20053;-79
2022/08/09 09:58:05;;;;;;;13.27;3.30;;;21.00;93.20;;;;;;5056888;28;20059;-75
2022/08/09 10:00:55;;;;;;;11.50;3.30;;;21.10;92.50;;;;;;5060775;28;20052;-75
2022/08/09 10:03:54;;;;;;;10.95;3.03;;;21.30;91.20;;;;;;5061254;28;20055;-78
2022/08/09 10:06:28;;;;;;;8.38;2.60;;;22.70;91.20;;;;;;5078489;28;20359;-77
2022/08/09 10:09:03;;;;;;;5.90;2.22;;;21.50;91.60;;;;;;5078032;28;20052;-82
2022/08/09 10:12:44;;;;;;;6.43;2.17;;;21.80;91.80;;;;;;4969318;28;20080;-76
2022/08/09 10:15:29;;;;;;;12.15;2.30;;;21.50;90.70;;;;;;4960794;28;20417;-77
2022/08/09 10:18:19;;;;;;;5.47;1.70;;;21.60;91.00;;;;;;4977885;28;20174;-77
2022/08/09 10:20:47;;;;;;;7.07;1.73;;;21.70;90.10;;;;;;4977658;28;20066;-76
2022/08/09 10:23:26;;;;;;;5.63;2.22;;;21.80;89.30;;;;;;4961135;28;20493;-76
2022/08/09 10:25:55;;;;;;;7.72;1.73;;;22.00;86.20;;;;;;4945406;28;20111;-74
2022/08/09 10:28:38;;;;;;;5.20;1.70;;;22.10;86.30;;;;;;4964309;28;20049;-77
2022/08/09 10:31:11;;;;;;;5.95;1.95;;;22.30;85.70;;;;;;5057757;28;20351;-78
2022/08/09 10:34:02;;;;;;;9.02;2.10;;;22.40;84.50;;;;;;5057412;28;20490;-75
2022/08/09 10:36:55;;;;;;;6.90;1.70;;;22.50;81.80;;;;;;5058014;28;20439;-74
2022/08/09 10:39:26;;;;;;;5.75;1.80;;;22.60;81.70;;;;;;5057885;28;20474;-76
2022/08/09 10:41:58;;;;;;;7.38;1.88;;;22.60;81.20;;;;;;5039721;28;20045;-74
2022/08/09 10:44:29;;;;;;;4.63;1.45;;;22.80;80.00;;;;;;5057838;28;20041;-74
2022/08/09 10:47:39;;;;;;;4.07;1.50;;;22.90;79.10;;;;;;5040814;28;20045;-75
2022/08/09 10:53:38;;;;;;;7.40;1.60;;;23.10;78.00;;;;;;5057331;28;20049;-74
2022/08/09 10:56:19;;;;;;;6.10;1.52;;;23.20;77.90;;;;;;5056590;28;20045;-75
2022/08/09 10:59:07;;;;;;;7.28;1.60;;;23.30;77.20;;;;;;5057411;28;20049;-79
2022/08/09 11:02:12;;;;;;;3.67;1.15;;;23.50;76.10;;;;;;5026830;28;20048;-79
2022/08/09 11:05:15;;;;;;;6.70;1.38;;;23.50;75.60;;;;;;5057696;28;20424;-77
2022/08/09 11:08:16;;;;;;;7.85;1.50;;;23.60;73.90;;;;;;5038655;28;20068;-75
2022/08/09 11:10:50;;;;;;;10.80;1.50;;;23.60;75.40;;;;;;5038249;28;20491;-76
2022/08/09 11:13:24;;;;;;;8.07;1.83;;;23.70;76.70;;;;;;5057823;28;20455;-77
2022/08/09 11:16:33;;;;;;;7.57;1.55;;;23.80;75.10;;;;;;5038583;28;20053;-72
2022/08/09 11:19:05;;;;;;;6.47;1.70;;;23.80;73.30;;;;;;5057360;28;20041;-74
2022/08/09 11:21:53;;;;;;;6.03;1.85;;;23.80;73.70;;;;;;5056368;28;20045;-73
2022/08/09 11:24:57;;;;;;;5.38;1.48;;;23.90;73.40;;;;;;5056929;28;20052;-78
2022/08/09 11:27:33;;;;;;;8.25;1.42;;;24.00;72.70;;;;;;5057041;28;20044;-79
2022/08/09 11:30:26;;;;;;;7.13;1.75;;;24.10;73.70;;;;;;5056770;28;20045;-77
2022/08/09 11:33:06;;;;;;;6.50;1.70;;;24.20;73.80;;;;;;5039652;28;20045;-75
2022/08/09 11:35:42;;;;;;;7.20;1.40;;;24.20;74.10;;;;;;5038977;28;20066;-77
2022/08/09 11:38:29;;;;;;;4.50;1.60;;;24.30;72.80;;;;;;5056755;28;20481;-80
2022/08/09 11:41:27;;;;;;;5.80;1.30;;;24.30;71.50;;;;;;5038945;28;20464;-79
2022/08/09 11:44:56;;;;;;;6.43;1.30;;;24.50;69.00;;;;;;5056796;28;20063;-84
2022/08/09 11:48:27;;;;;;;8.32;1.52;;;24.50;69.00;;;;;;5041589;28;20388;-82
2022/08/09 11:51:25;;;;;;;6.45;1.40;;;24.60;70.40;;;;;;5023712;28;20055;-79
2022/08/09 11:54:41;;;;;;;4.85;1.50;;;24.80;68.00;;;;;;5041776;28;20083;-80
2022/08/09 11:57:56;;;;;;;4.68;1.23;;;24.60;69.90;;;;;;5031041;28;20060;-81
2022/08/09 12:01:22;;;;;;;;;;;;;;;;;;;;;
2022/08/09 12:04:21;;;;;;;6.65;1.55;;;24.70;67.50;;;;;;4997712;28;20412;-81
2022/08/09 12:07:05;;;;;;;5.25;1.48;;;24.80;68.20;;;;;;4998274;28;20412;-83
2022/08/09 12:09:48;;;;;;;;;;;;;;;;;;;;;
2022/08/09 12:12:26;;;;;;;5.28;1.40;;;25.80;67.40;;;;;;5014620;28;20060;-82
2022/08/09 12:15:55;;;;;;;;;;;;;;;;;;;;;
2022/08/09 12:19:10;;;;;;;4.32;1.10;;;24.80;65.70;;;;;;5014380;28;20535;-84
2022/08/09 12:21:58;;;;;;;5.70;1.60;;;25.20;67.80;;;;;;5013628;28;20065;-84
2022/08/09 12:25:08;;;;;;;5.63;1.50;;;25.10;67.10;;;;;;5014535;28;20069;-83
2022/08/09 12:27:57;;;;;;;;;;;;;;;;;;;;;
2022/08/09 12:30:45;;;;;;;8.38;1.70;;;24.70;67.50;;;;;;4998239;28;20053;-77
2022/08/09 12:33:23;;;;;;;11.80;1.63;;;25.60;68.10;;;;;;5019591;28;20049;-79
2022/08/09 12:36:11;;;;;;;6.57;1.85;;;25.70;68.10;;;;;;5054698;28;20041;-74
2022/08/09 12:38:58;;;;;;;7.97;1.58;;;25.70;65.70;;;;;;5056034;28;20053;-73
2022/08/09 12:41:32;;;;;;;6.35;1.58;;;25.70;65.50;;;;;;5054900;28;20471;-76
2022/08/09 12:44:07;;;;;;;5.10;1.30;;;25.80;65.10;;;;;;5055534;28;20049;-75
2022/08/09 12:46:45;;;;;;;6.88;1.70;;;25.80;65.30;;;;;;5055570;28;20372;-74
2022/08/09 12:49:18;;;;;;;5.18;1.55;;;25.80;65.20;;;;;;5037314;28;20041;-73
2022/08/09 12:51:55;;;;;;;10.95;1.75;;;25.90;65.40;;;;;;5055245;28;20045;-73
2022/08/09 12:54:51;;;;;;;6.30;1.40;;;25.90;65.10;;;;;;5054583;28;20037;-73
2022/08/09 12:57:44;;;;;;;7.90;1.40;;;25.90;64.30;;;;;;5055163;28;20048;-72
2022/08/09 13:00:23;;;;;;;11.07;1.73;;;25.90;64.30;;;;;;5055544;28;20049;-74
2022/08/09 13:03:01;;;;;;;7.60;1.52;;;25.90;65.40;;;;;;5054342;28;20049;-71
2022/08/09 13:05:49;;;;;;;5.32;1.65;;;26.00;65.40;;;;;;5054878;28;20040;-74
2022/08/09 13:08:37;;;;;;;6.22;1.45;;;26.10;64.70;;;;;;5053958;28;20060;-73
2022/08/09 13:11:10;;;;;;;5.00;1.60;;;26.00;67.90;;;;;;5037939;28;20052;-75
2022/08/09 13:13:56;;;;;;;6.43;1.40;;;26.00;66.60;;;;;;5037704;28;20068;-75
2022/08/09 13:16:48;;;;;;;7.30;1.65;;;26.10;65.70;;;;;;5054629;28;20053;-75
2022/08/09 13:19:32;;;;;;;10.82;1.73;;;26.20;65.80;;;;;;5055344;28;20375;-75
2022/08/09 13:22:23;;;;;;;9.98;1.42;;;26.20;64.40;;;;;;5054004;28;20045;-75
2022/08/09 13:25:07;;;;;;;5.55;1.60;;;26.20;65.20;;;;;;5054540;28;20056;-75
2022/08/09 13:28:09;;;;;;;9.10;1.80;;;26.30;66.10;;;;;;5061329;28;20049;-79
2022/08/09 13:31:40;;;;;;;6.97;1.58;;;26.10;66.20;;;;;;5068358;28;20041;-78
2022/08/09 13:35:26;;;;;;;4.00;1.30;;;26.50;66.90;;;;;;5073393;28;20048;-83
2022/08/09 13:38:29;;;;;;;8.55;1.35;;;26.40;64.50;;;;;;5062289;28;20045;-74
2022/08/09 13:41:21;;;;;;;9.55;1.38;;;26.40;64.20;;;;;;5058647;28;20049;-71
2022/08/09 13:44:09;;;;;;;4.70;1.30;;;26.50;63.50;;;;;;5056355;28;20059;-71
2022/08/09 13:46:44;;;;;;;9.55;1.60;;;26.60;63.40;;;;;;5074104;28;20060;-76
2022/08/09 13:49:35;;;;;;;8.05;1.52;;;26.90;63.10;;;;;;5059888;28;20043;-78
2022/08/09 13:52:18;;;;;;;7.25;1.60;;;27.30;62.80;;;;;;5042321;28;20045;-74
2022/08/09 13:54:46;;;;;;;;;;;28.00;62.40;;;;;;5074254;28;20059;-77
2022/08/09 13:57:31;;;;;;;8.90;1.52;;;28.00;61.60;;;;;;5074702;28;19925;-73
2022/08/09 14:00:12;;;;;;;6.60;1.52;;;29.50;60.30;;;;;;5058632;28;20040;-70
2022/08/09 14:02:45;;;;;;;5.30;1.40;;;30.40;58.10;;;;;;5073160;28;20044;-73
2022/08/09 14:05:33;;;;;;;5.22;1.35;;;31.30;57.80;;;;;;5074584;28;20033;-72
2022/08/09 14:08:21;;;;;;;6.20;1.67;;;32.00;56.80;;;;;;5073575;28;20051;-72